Aviation Digital Data Service (ADDS)

Output produced by METARs form (1230 UTC 17 April 2014)
found at http://aviationweather.gov/adds/metars/
 
KPHF 171131Z 1712/1812 04010KT P6SM SCT035 
     FM171500 06012G18KT P6SM BKN035 
     FM180000 06008KT P6SM BKN035 
     FM180900 04006KT P6SM BKN025